createdAt,value
2017-07-24T00:00:09.495Z,72.14
2017-07-24T00:02:38.594Z,73.54
2017-07-24T00:05:07.828Z,73.84
2017-07-24T00:07:36.903Z,74.35
2017-07-24T00:10:06.005Z,74.71
2017-07-24T00:12:35.060Z,75.38
2017-07-24T00:15:04.145Z,74.71
2017-07-24T00:17:33.209Z,75.09
2017-07-24T00:20:02.279Z,74.91
2017-07-24T00:22:31.348Z,75.56
2017-07-24T00:25:00.432Z,75.30
2017-07-24T00:27:29.475Z,75.31
2017-07-24T00:29:58.541Z,75.47
2017-07-24T00:32:28.351Z,76.22
2017-07-24T00:34:58.194Z,75.01
2017-07-24T00:37:27.455Z,75.75
2017-07-24T00:39:56.634Z,75.82
2017-07-24T00:42:25.764Z,75.67
2017-07-24T00:44:55.581Z,75.93
2017-07-24T00:47:25.412Z,75.61
2017-07-24T00:49:54.547Z,75.72
2017-07-24T00:52:23.580Z,76.33
2017-07-24T00:54:52.639Z,76.10
2017-07-24T00:57:21.692Z,75.63
2017-07-24T00:59:50.769Z,75.97
2017-07-24T01:02:20.968Z,76.04
2017-07-24T01:04:50.019Z,75.38
2017-07-24T01:07:19.067Z,75.75
2017-07-24T01:09:48.880Z,75.63
2017-07-24T01:12:17.989Z,76.01
2017-07-24T01:14:47.004Z,75.08
2017-07-24T01:17:16.096Z,74.96
2017-07-24T01:19:46.108Z,74.81
2017-07-24T01:22:15.180Z,74.95
2017-07-24T01:24:44.212Z,75.00
2017-07-24T01:27:13.313Z,75.08
2017-07-24T01:29:42.393Z,74.72
2017-07-24T01:32:11.439Z,75.30
2017-07-24T01:34:40.517Z,75.25
2017-07-24T01:37:09.961Z,75.31
2017-07-24T01:39:39.794Z,74.72
2017-07-24T01:42:08.857Z,75.17
2017-07-24T01:44:37.915Z,75.21
2017-07-24T01:47:07.014Z,75.47
2017-07-24T01:49:36.113Z,74.97
2017-07-24T01:52:05.184Z,74.83
2017-07-24T01:54:34.233Z,75.13
2017-07-24T01:57:03.346Z,75.51
2017-07-24T01:59:32.511Z,75.70
2017-07-24T02:02:01.580Z,75.18
2017-07-24T02:04:30.635Z,75.63
2017-07-24T02:06:59.671Z,75.34
2017-07-24T02:09:28.727Z,74.88
2017-07-24T02:11:57.797Z,75.12
2017-07-24T02:14:26.863Z,75.20
2017-07-24T02:16:55.903Z,75.50
2017-07-24T02:19:25.765Z,75.55
2017-07-24T02:21:54.805Z,75.21
2017-07-24T02:24:24.624Z,75.42
2017-07-24T02:26:53.667Z,75.87
2017-07-24T02:29:22.734Z,75.55
2017-07-24T02:31:51.808Z,76.25
2017-07-24T02:34:21.612Z,76.18
2017-07-24T02:36:50.706Z,75.85
2017-07-24T02:39:19.734Z,75.71
2017-07-24T02:41:48.801Z,76.37
2017-07-24T02:44:17.839Z,76.43
2017-07-24T02:46:46.887Z,76.81
2017-07-24T02:49:16.715Z,76.59
2017-07-24T02:51:45.781Z,76.28
2017-07-24T02:54:14.854Z,76.57
2017-07-24T02:56:43.902Z,76.92
2017-07-24T02:59:13.739Z,76.32
2017-07-24T03:01:42.796Z,76.74
2017-07-24T03:04:12.761Z,77.39
2017-07-24T03:06:41.775Z,77.63
2017-07-24T03:09:10.862Z,78.02
2017-07-24T03:11:39.917Z,78.42
2017-07-24T03:14:09.153Z,77.95
2017-07-24T03:16:38.241Z,78.61
2017-07-24T03:19:07.540Z,78.63
2017-07-24T03:21:36.651Z,79.27
2017-07-24T03:24:05.738Z,79.27
2017-07-24T03:26:34.829Z,80.14
2017-07-24T03:29:03.907Z,80.63
2017-07-24T03:31:33.165Z,80.49
2017-07-24T03:34:02.209Z,80.71
2017-07-24T03:36:31.269Z,81.22
2017-07-24T03:39:00.345Z,81.24
2017-07-24T03:41:29.411Z,81.50
2017-07-24T03:43:58.453Z,81.54
2017-07-24T03:46:27.520Z,81.82
2017-07-24T03:48:56.570Z,82.46
2017-07-24T03:51:25.640Z,82.39
2017-07-24T03:53:54.692Z,82.78
2017-07-24T03:56:23.788Z,83.44
2017-07-24T03:58:52.884Z,82.94
2017-07-24T04:01:21.943Z,83.23
2017-07-24T04:03:51.005Z,83.73
2017-07-24T04:06:20.072Z,83.63
2017-07-24T04:08:49.145Z,84.19
2017-07-24T04:11:18.185Z,85.10
2017-07-24T04:13:48.008Z,84.60
2017-07-24T04:16:17.840Z,84.91
2017-07-24T04:18:46.908Z,84.34
2017-07-24T04:21:16.733Z,85.40
2017-07-24T04:23:45.775Z,85.62
2017-07-24T04:26:14.837Z,85.57
2017-07-24T04:28:43.894Z,85.97
2017-07-24T04:31:12.958Z,85.92
2017-07-24T04:33:42.013Z,85.93
2017-07-24T04:36:11.088Z,86.17
2017-07-24T04:38:40.956Z,86.21
2017-07-24T04:41:10.016Z,86.24
2017-07-24T04:43:39.086Z,86.25
2017-07-24T04:46:08.137Z,86.07
2017-07-24T04:48:37.196Z,86.07
2017-07-24T04:51:06.991Z,86.35
2017-07-24T04:53:36.808Z,85.81
2017-07-24T04:56:06.668Z,86.24
2017-07-24T04:58:35.700Z,86.18
2017-07-24T05:01:04.779Z,86.33
2017-07-24T05:03:33.829Z,86.21
2017-07-24T05:06:02.879Z,86.22
2017-07-24T05:08:31.964Z,86.26
2017-07-24T05:11:01.010Z,85.97
2017-07-24T05:13:30.083Z,86.09
2017-07-24T05:15:59.987Z,86.15
2017-07-24T05:18:29.035Z,85.82
2017-07-24T05:20:58.083Z,85.95
2017-07-24T05:23:27.904Z,85.85
2017-07-24T05:25:57.731Z,85.95
2017-07-24T05:28:26.796Z,86.12
2017-07-24T05:30:55.855Z,86.15
2017-07-24T05:33:24.905Z,86.15
2017-07-24T05:35:53.981Z,86.18
2017-07-24T05:38:23.045Z,86.21
2017-07-24T05:40:52.105Z,86.42
2017-07-24T05:43:21.179Z,85.88
2017-07-24T05:45:50.243Z,85.96
2017-07-24T05:48:19.324Z,86.19
2017-07-24T05:50:48.356Z,86.36
2017-07-24T05:53:18.226Z,86.05
2017-07-24T05:55:47.284Z,86.00
2017-07-24T05:58:16.329Z,85.96
2017-07-24T06:00:46.145Z,86.21
2017-07-24T06:03:15.849Z,86.70
2017-07-24T06:05:44.923Z,86.91
2017-07-24T06:08:13.994Z,86.60
2017-07-24T06:10:43.055Z,86.54
2017-07-24T06:13:12.132Z,87.10
2017-07-24T06:15:41.172Z,87.27
2017-07-24T06:18:10.550Z,86.68
2017-07-24T06:20:39.593Z,86.47
2017-07-24T06:23:08.644Z,86.28
2017-07-24T06:25:38.452Z,86.73
2017-07-24T06:28:08.303Z,86.41
2017-07-24T06:30:37.395Z,86.36
2017-07-24T06:33:06.459Z,86.53
2017-07-24T06:35:36.280Z,87.16
2017-07-24T06:38:06.100Z,86.83
2017-07-24T06:40:35.199Z,86.64
2017-07-24T06:43:04.272Z,86.77
2017-07-24T06:45:33.320Z,86.22
2017-07-24T06:48:02.451Z,86.50
2017-07-24T06:50:31.522Z,86.37
2017-07-24T06:53:00.622Z,86.52
2017-07-24T06:55:29.679Z,87.05
2017-07-24T06:57:58.768Z,86.38
2017-07-24T07:00:27.816Z,85.39
2017-07-24T07:02:56.865Z,84.97
2017-07-24T07:05:25.953Z,85.42
2017-07-24T07:07:54.991Z,85.58
2017-07-24T07:10:24.085Z,85.29
2017-07-24T07:12:53.105Z,85.48
2017-07-24T07:15:22.142Z,85.34
2017-07-24T07:17:51.203Z,85.74
2017-07-24T07:20:21.332Z,86.09
2017-07-24T07:22:51.160Z,85.89
2017-07-24T07:25:20.687Z,85.98
2017-07-24T07:27:49.770Z,86.34
2017-07-24T07:30:18.840Z,86.30
2017-07-24T07:32:48.656Z,85.75
2017-07-24T07:35:18.712Z,85.10
2017-07-24T07:37:47.774Z,85.82
2017-07-24T07:40:16.903Z,85.34
2017-07-24T07:42:45.919Z,84.90
2017-07-24T07:45:15.762Z,84.35
2017-07-24T07:47:44.865Z,83.20
2017-07-24T07:50:14.691Z,83.02
2017-07-24T07:52:44.813Z,82.10
2017-07-24T07:55:14.657Z,82.21
2017-07-24T07:57:43.901Z,84.56
2017-07-24T08:00:12.980Z,84.50
2017-07-24T08:02:42.016Z,84.95
2017-07-24T08:05:11.117Z,84.73
2017-07-24T08:07:40.882Z,85.00
2017-07-24T08:10:09.956Z,85.30
2017-07-24T08:12:39.032Z,85.27
2017-07-24T08:15:08.218Z,85.40
2017-07-24T08:17:37.295Z,85.47
2017-07-24T08:20:07.121Z,85.44
2017-07-24T08:22:39.856Z,85.27
2017-07-24T08:25:16.613Z,85.90
2017-07-24T08:27:48.852Z,85.95
2017-07-24T08:30:17.966Z,84.01
2017-07-24T08:32:47.044Z,83.40
2017-07-24T08:35:16.095Z,84.41
2017-07-24T08:37:45.886Z,84.30
2017-07-24T08:40:14.944Z,84.90
2017-07-24T08:42:45.472Z,83.82
2017-07-24T08:45:14.546Z,84.21
2017-07-24T08:47:45.040Z,84.00
2017-07-24T08:50:14.917Z,84.28
2017-07-24T08:52:44.016Z,84.23
2017-07-24T08:55:13.050Z,85.00
2017-07-24T08:57:42.108Z,84.10
2017-07-24T09:00:14.637Z,83.63
2017-07-24T09:02:43.693Z,83.68
2017-07-24T09:05:13.506Z,84.21
2017-07-24T09:07:43.265Z,83.72
2017-07-24T09:10:13.093Z,83.51
2017-07-24T09:12:42.164Z,83.14
2017-07-24T09:21:08.894Z,82.60
2017-07-24T09:23:37.980Z,82.91
2017-07-24T09:26:07.110Z,83.09
2017-07-24T09:28:36.973Z,81.31
2017-07-24T09:31:06.078Z,81.89
2017-07-24T09:33:35.149Z,81.73
2017-07-24T09:36:04.193Z,81.78
2017-07-24T09:38:33.256Z,82.30
2017-07-24T09:41:03.287Z,82.59
2017-07-24T09:43:33.499Z,79.50
2017-07-24T09:46:04.165Z,78.75
2017-07-24T09:48:33.480Z,78.21
2017-07-24T09:51:02.572Z,78.94
2017-07-24T09:53:31.652Z,78.37
2017-07-24T09:56:00.736Z,78.75
2017-07-24T09:58:29.784Z,77.41
2017-07-24T10:00:59.171Z,78.90
2017-07-24T10:03:28.256Z,79.24
2017-07-24T10:05:57.349Z,77.15
2017-07-24T10:08:26.543Z,78.38
2017-07-24T10:10:55.580Z,77.95
2017-07-24T10:13:25.419Z,81.91
2017-07-24T10:15:54.476Z,80.42
2017-07-24T10:18:24.287Z,80.94
2017-07-24T10:20:54.113Z,82.64
2017-07-24T10:23:24.300Z,81.68
2017-07-24T10:25:53.343Z,82.57
2017-07-24T10:28:22.406Z,83.58
2017-07-24T10:30:51.458Z,81.86
2017-07-24T10:33:20.610Z,80.69
2017-07-24T10:35:49.727Z,79.42
2017-07-24T10:38:19.055Z,82.11
2017-07-24T10:40:48.119Z,82.18
2017-07-24T10:43:17.243Z,80.78
2017-07-24T10:45:46.296Z,80.02
2017-07-24T10:48:16.167Z,79.62
2017-07-24T10:50:45.224Z,80.58
2017-07-24T10:53:14.322Z,80.16
2017-07-24T10:55:43.367Z,79.55
2017-07-24T10:58:12.477Z,77.57
2017-07-24T11:00:41.527Z,79.58
2017-07-24T11:03:10.677Z,81.11
2017-07-24T11:05:39.732Z,80.28
2017-07-24T11:08:08.821Z,79.68
2017-07-24T11:10:37.903Z,78.54
2017-07-24T11:13:07.224Z,80.87
2017-07-24T11:15:36.272Z,78.82
2017-07-24T11:18:05.367Z,76.74
2017-07-24T11:20:34.454Z,79.66
2017-07-24T11:23:04.255Z,77.32
2017-07-24T11:25:34.085Z,77.52
2017-07-24T11:28:04.164Z,78.25
2017-07-24T11:30:33.241Z,76.98
2017-07-24T11:33:02.316Z,80.42
2017-07-24T11:35:31.468Z,79.10
2017-07-24T11:38:00.563Z,80.34
2017-07-24T11:40:30.442Z,81.95
2017-07-24T11:42:59.561Z,81.83
2017-07-24T11:45:28.600Z,84.09
2017-07-24T11:47:57.694Z,83.57
2017-07-24T11:50:26.769Z,80.86
2017-07-24T11:52:55.840Z,83.43
2017-07-24T11:55:25.529Z,83.48
2017-07-24T11:57:54.624Z,81.08
2017-07-24T12:00:23.680Z,75.92
2017-07-24T12:02:53.499Z,78.33
2017-07-24T12:05:22.551Z,76.54
2017-07-24T12:07:51.645Z,74.30
2017-07-24T12:10:20.933Z,74.82
2017-07-24T12:12:49.999Z,73.11
2017-07-24T12:15:19.068Z,71.09
2017-07-24T12:17:48.425Z,73.71
2017-07-24T12:20:17.491Z,73.94
2017-07-24T12:22:47.079Z,73.67
2017-07-24T12:25:16.885Z,77.26
2017-07-24T12:27:45.958Z,77.06
2017-07-24T12:30:15.353Z,75.58
2017-07-24T12:32:44.440Z,76.97
2017-07-24T12:35:13.497Z,79.10
2017-07-24T12:37:46.687Z,75.11
2017-07-24T12:43:47.893Z,73.34
2017-07-24T12:46:16.967Z,73.06
2017-07-24T12:48:46.955Z,72.91
2017-07-24T13:00:32.432Z,71.48
2017-07-24T13:03:01.491Z,71.75
2017-07-24T13:05:30.563Z,71.13
2017-07-24T13:08:00.866Z,70.73
2017-07-24T13:10:29.946Z,70.02
2017-07-24T13:12:59.107Z,72.00
2017-07-24T13:15:28.317Z,72.15
2017-07-24T13:17:57.472Z,70.01
2017-07-24T13:20:27.356Z,70.45
2017-07-24T13:22:56.428Z,72.63
2017-07-24T13:25:25.532Z,68.45
2017-07-24T13:27:54.585Z,67.14
2017-07-24T13:30:24.472Z,67.76
2017-07-24T13:32:54.404Z,68.14
2017-07-24T13:35:24.268Z,67.80
2017-07-24T13:37:53.321Z,70.06
2017-07-24T13:40:23.920Z,71.56
2017-07-24T13:45:31.133Z,69.74
2017-07-24T13:48:00.168Z,70.41
2017-07-24T13:50:29.256Z,69.06
2017-07-24T13:52:58.306Z,68.30
2017-07-24T13:55:27.366Z,69.36
2017-07-24T13:57:56.425Z,68.34
2017-07-24T14:00:26.239Z,67.31
2017-07-24T14:02:56.149Z,68.33
2017-07-24T14:05:25.193Z,66.10
2017-07-24T14:07:54.286Z,66.05
2017-07-24T14:10:23.395Z,66.22
2017-07-24T14:12:52.444Z,66.09
2017-07-24T14:15:21.509Z,65.31
2017-07-24T14:17:50.555Z,65.35
2017-07-24T14:20:19.610Z,64.51
2017-07-24T14:22:49.448Z,64.96
2017-07-24T14:25:18.522Z,64.69
2017-07-24T14:28:08.176Z,65.43
2017-07-24T14:30:37.225Z,65.49
2017-07-24T14:33:06.311Z,66.18
2017-07-24T14:35:35.336Z,68.86
2017-07-24T14:38:04.428Z,66.38
2017-07-24T14:40:33.482Z,67.02
2017-07-24T14:43:02.523Z,67.35
2017-07-24T14:45:31.598Z,68.06
2017-07-24T14:48:00.651Z,69.79
2017-07-24T14:50:29.730Z,70.75
2017-07-24T14:52:58.777Z,72.49
2017-07-24T14:55:27.836Z,75.51
2017-07-24T14:57:56.895Z,76.18
2017-07-24T15:00:25.957Z,76.58
2017-07-24T15:02:55.156Z,76.00
2017-07-24T15:05:24.224Z,76.49
2017-07-24T15:07:53.255Z,75.45
2017-07-24T15:10:22.363Z,76.60
2017-07-24T15:12:51.442Z,75.88
2017-07-24T15:15:20.507Z,74.38
2017-07-24T15:17:49.568Z,75.35
2017-07-24T15:20:18.652Z,74.84
2017-07-24T15:22:47.698Z,73.85
2017-07-24T15:25:16.763Z,76.91
2017-07-24T15:27:45.839Z,75.56
2017-07-24T15:30:14.878Z,74.98
2017-07-24T15:32:44.047Z,74.05
2017-07-24T15:35:13.403Z,72.56
2017-07-24T15:37:42.440Z,73.54
2017-07-24T15:40:11.585Z,70.32
2017-07-24T15:42:40.603Z,68.25
2017-07-24T15:45:09.665Z,69.53
2017-07-24T15:47:38.699Z,70.48
2017-07-24T15:50:07.759Z,69.04
2017-07-24T15:52:36.833Z,70.26
2017-07-24T15:55:05.924Z,69.68
2017-07-24T15:57:34.955Z,68.21
2017-07-24T16:00:04.100Z,67.98
2017-07-24T16:02:33.178Z,68.68
2017-07-24T16:05:02.228Z,69.98
2017-07-24T16:07:31.313Z,68.98
2017-07-24T16:10:00.368Z,70.10
2017-07-24T16:12:29.420Z,71.09
2017-07-24T16:14:58.471Z,70.75
2017-07-24T16:17:27.516Z,71.65
2017-07-24T16:19:56.560Z,70.40
2017-07-24T16:22:25.625Z,70.87
2017-07-24T16:24:54.673Z,71.35
2017-07-24T16:27:23.724Z,72.20
2017-07-24T16:29:52.766Z,72.17
2017-07-24T16:32:21.827Z,73.00
2017-07-24T16:34:50.893Z,74.42
2017-07-24T16:37:19.984Z,75.19
2017-07-24T16:39:49.040Z,72.22
2017-07-24T16:42:18.127Z,73.14
2017-07-24T16:44:47.213Z,73.80
2017-07-24T16:47:16.285Z,74.52
2017-07-24T16:49:45.339Z,75.18
2017-07-24T16:52:14.725Z,75.94
2017-07-24T16:54:43.756Z,76.59
2017-07-24T16:57:12.799Z,76.63
2017-07-24T16:59:41.863Z,76.83
2017-07-24T17:02:10.935Z,78.70
2017-07-24T17:04:39.956Z,81.24
2017-07-24T17:07:09.095Z,82.83
2017-07-24T17:09:38.163Z,81.96
2017-07-24T17:12:07.263Z,83.48
2017-07-24T17:14:36.324Z,84.10
2017-07-24T17:17:05.513Z,84.60
2017-07-24T17:19:34.584Z,84.51
2017-07-24T17:22:03.689Z,85.04
2017-07-24T17:24:32.747Z,85.60
2017-07-24T17:27:01.808Z,85.29
2017-07-24T17:29:30.859Z,88.48
2017-07-24T17:31:59.928Z,86.94
2017-07-24T17:34:29.052Z,85.60
2017-07-24T17:36:58.277Z,84.77
2017-07-24T17:39:27.319Z,86.47
2017-07-24T17:41:56.378Z,86.62
2017-07-24T17:44:25.425Z,86.97
2017-07-24T17:46:54.493Z,86.96
2017-07-24T17:49:23.578Z,87.53
2017-07-24T17:51:52.635Z,85.24
2017-07-24T17:54:21.699Z,85.77
2017-07-24T17:56:50.863Z,86.39
2017-07-24T17:59:19.922Z,86.63
2017-07-24T18:01:49.005Z,87.31
2017-07-24T18:04:18.074Z,87.76
2017-07-24T18:06:47.125Z,86.32
2017-07-24T18:09:16.232Z,86.29
2017-07-24T18:11:45.273Z,86.38
2017-07-24T18:14:14.360Z,87.78
2017-07-24T18:16:43.405Z,86.62
2017-07-24T18:19:12.485Z,86.25
2017-07-24T18:21:41.538Z,86.51
2017-07-24T18:24:10.632Z,87.53
2017-07-24T18:26:39.650Z,88.01
2017-07-24T18:29:08.822Z,88.64
2017-07-24T18:31:37.912Z,87.82
2017-07-24T18:34:06.997Z,87.38
2017-07-24T18:36:36.044Z,87.46
2017-07-24T18:39:05.087Z,87.29
2017-07-24T18:41:34.135Z,88.24
2017-07-24T18:44:03.215Z,87.79
2017-07-24T18:46:32.273Z,87.52
2017-07-24T18:49:01.300Z,87.71
2017-07-24T18:51:30.372Z,87.62
2017-07-24T18:53:59.431Z,87.27
2017-07-24T18:56:28.488Z,87.41
2017-07-24T18:58:57.561Z,87.43
2017-07-24T19:01:26.604Z,87.24
2017-07-24T19:03:55.694Z,87.09
2017-07-24T19:06:24.752Z,87.08
2017-07-24T19:08:53.816Z,87.13
2017-07-24T19:11:22.897Z,86.82
2017-07-24T19:13:52.061Z,86.58
2017-07-24T19:16:21.091Z,86.71
2017-07-24T19:18:50.295Z,86.38
2017-07-24T19:21:19.356Z,87.14
2017-07-24T19:23:48.468Z,86.98
2017-07-24T19:26:17.573Z,86.90
2017-07-24T19:28:46.602Z,86.79
2017-07-24T19:31:15.637Z,87.05
2017-07-24T19:33:44.712Z,86.96
2017-07-24T19:36:13.834Z,86.77
2017-07-24T19:38:42.875Z,86.47
2017-07-24T19:41:11.927Z,86.31
2017-07-24T19:43:41.010Z,86.66
2017-07-24T19:46:10.044Z,86.32
2017-07-24T19:48:39.137Z,86.38
2017-07-24T19:51:08.194Z,86.87
2017-07-24T19:53:37.346Z,86.67
2017-07-24T19:56:06.450Z,86.66
2017-07-24T19:58:35.468Z,87.08
2017-07-24T20:01:04.522Z,87.17
2017-07-24T20:03:33.584Z,87.28
2017-07-24T20:06:02.702Z,87.29
2017-07-24T20:08:31.756Z,87.10
2017-07-24T20:11:00.960Z,87.13
2017-07-24T20:13:30.003Z,87.33
2017-07-24T20:15:59.114Z,86.92
2017-07-24T20:18:28.192Z,87.48
2017-07-24T20:20:57.268Z,87.67
2017-07-24T20:23:26.559Z,87.69
2017-07-24T20:25:55.740Z,87.91
2017-07-24T20:28:24.795Z,87.88
2017-07-24T20:30:53.890Z,88.30
2017-07-24T20:33:22.939Z,87.93
2017-07-24T20:35:52.048Z,87.66
2017-07-24T20:38:21.176Z,87.61
2017-07-24T20:40:50.224Z,87.66
2017-07-24T20:43:19.339Z,87.59
2017-07-24T20:45:48.400Z,88.42
2017-07-24T20:48:17.496Z,88.46
2017-07-24T20:50:46.543Z,87.97
2017-07-24T20:53:15.631Z,88.00
2017-07-24T20:55:44.996Z,88.07
2017-07-24T20:58:14.193Z,88.13
2017-07-24T21:00:43.233Z,88.08
2017-07-24T21:03:12.426Z,88.48
2017-07-24T21:05:41.511Z,88.58
2017-07-24T21:08:10.560Z,88.30
2017-07-24T21:10:39.635Z,86.98
2017-07-24T21:13:08.685Z,86.22
2017-07-24T21:15:37.746Z,86.46
2017-07-24T21:18:06.803Z,87.08
2017-07-24T21:20:35.879Z,87.42
2017-07-24T21:23:04.960Z,87.49
2017-07-24T21:25:34.032Z,87.41
2017-07-24T21:28:03.109Z,87.98
2017-07-24T21:30:32.205Z,87.94
2017-07-24T21:33:01.273Z,88.31
2017-07-24T21:35:30.352Z,88.00
2017-07-24T21:37:59.456Z,87.33
2017-07-24T21:40:28.521Z,87.33
2017-07-24T21:42:57.612Z,87.61
2017-07-24T21:45:26.704Z,87.58
2017-07-24T21:47:55.787Z,87.61
2017-07-24T21:50:24.879Z,87.96
2017-07-24T21:52:53.928Z,87.61
2017-07-24T21:55:23.034Z,88.21
2017-07-24T21:57:52.082Z,88.64
2017-07-24T22:00:21.204Z,88.88
2017-07-24T22:02:50.279Z,89.15
2017-07-24T22:05:19.483Z,89.17
2017-07-24T22:07:48.535Z,89.21
2017-07-24T22:10:17.634Z,89.12
2017-07-24T22:12:46.684Z,88.50
2017-07-24T22:15:15.942Z,88.14
2017-07-24T22:17:45.008Z,87.95
2017-07-24T22:20:14.136Z,88.29
2017-07-24T22:22:43.175Z,87.86
2017-07-24T22:25:12.471Z,87.62
2017-07-24T22:27:41.544Z,88.18
2017-07-24T22:30:10.642Z,88.12
2017-07-24T22:32:39.740Z,88.74
2017-07-24T22:35:08.811Z,89.33
2017-07-24T22:37:37.919Z,89.56
2017-07-24T22:40:06.970Z,89.60
2017-07-24T22:42:36.074Z,89.01
2017-07-24T22:45:05.136Z,89.24
2017-07-24T22:47:34.195Z,89.13
2017-07-24T22:50:03.304Z,89.03
2017-07-24T22:52:32.346Z,88.88
2017-07-24T22:55:01.399Z,88.93
2017-07-24T22:57:30.492Z,88.91
2017-07-24T22:59:59.546Z,88.90
2017-07-24T23:02:28.632Z,88.52
2017-07-24T23:04:57.708Z,89.39
2017-07-24T23:07:26.751Z,88.89
2017-07-24T23:09:55.864Z,89.23
2017-07-24T23:12:24.912Z,90.32
2017-07-24T23:14:53.965Z,89.88
2017-07-24T23:17:23.002Z,90.34
2017-07-24T23:19:52.127Z,90.75
2017-07-24T23:22:21.187Z,91.00
2017-07-24T23:24:50.251Z,91.20
2017-07-24T23:27:19.328Z,91.11
2017-07-24T23:29:48.395Z,91.37
2017-07-24T23:32:20.381Z,91.32
2017-07-24T23:34:49.428Z,90.92
2017-07-24T23:37:18.520Z,90.93
2017-07-24T23:39:47.555Z,90.88
2017-07-24T23:42:16.627Z,91.36
2017-07-24T23:44:45.715Z,91.72
2017-07-24T23:47:14.803Z,91.46
2017-07-24T23:49:43.833Z,91.23
2017-07-24T23:52:12.909Z,90.74
2017-07-24T23:54:41.981Z,89.92
2017-07-24T23:57:11.061Z,90.04
2017-07-24T23:59:40.123Z,90.39
